Sahiwal Weather



Sahiwal's Current Weather

Temprature 11.96o light rain

light rain

Rain: 163 %

Min Temprature11.96o
Max Temprature11.96o
Humidity88
Wind Speed2.6 m/h
Sun Rise07:07:32
Sun Set17:38:43
Current Time: 27-Jan-2020 18:25:49
Lat/Lon: 31.97, 72.33




Sahiwal's Geo Location



Sahiwal's Weather Forecast

Time Overall Temp Min Temp Max Temp Humidity Wind Speed Rain
27-Jan-2020 (Mon)
20:00:00 light rain 11.700 11.700 11.700 85 1.71 m/h 31 %
23:00:00 overcast clouds 11.690 11.690 11.690 78 2.36 m/h 0 %
28-Jan-2020 (Tue)
02:00:00 overcast clouds 11.940 11.940 11.940 77 3.75 m/h 0 %
05:00:00 light rain 12.080 12.080 12.080 74 2.53 m/h 13 %
08:00:00 overcast clouds 10.910 10.910 10.910 88 2.34 m/h 0 %
11:00:00 overcast clouds 13.440 13.440 13.440 77 4.16 m/h 0 %
14:00:00 light rain 12.670 12.670 12.670 80 4.27 m/h 31 %
17:00:00 overcast clouds 12.370 12.370 12.370 79 3.52 m/h 0 %
20:00:00 broken clouds 9.270 9.270 9.270 91 3.39 m/h 0 %
23:00:00 scattered clouds 8.290 8.290 8.290 94 2.2 m/h 0 %
29-Jan-2020 (Wed)
02:00:00 few clouds 8.100 8.100 8.100 93 1.68 m/h 0 %
05:00:00 scattered clouds 8.200 8.200 8.200 90 0.96 m/h 0 %
08:00:00 few clouds 9.010 9.010 9.010 89 0.79 m/h 0 %
11:00:00 scattered clouds 14.840 14.840 14.840 66 1.32 m/h 0 %
14:00:00 scattered clouds 17.700 17.700 17.700 45 2.96 m/h 0 %
17:00:00 few clouds 16.120 16.120 16.120 52 3.73 m/h 0 %
20:00:00 clear sky 10.750 10.750 10.750 74 2.55 m/h 0 %
23:00:00 clear sky 9.430 9.430 9.430 72 2.3 m/h 0 %
30-Jan-2020 (Thu)
02:00:00 clear sky 8.500 8.500 8.500 72 2.17 m/h 0 %
05:00:00 clear sky 7.970 7.970 7.970 79 1.61 m/h 0 %
08:00:00 clear sky 9.500 9.500 9.500 74 0.89 m/h 0 %
11:00:00 few clouds 16.590 16.590 16.590 46 1.53 m/h 0 %
14:00:00 overcast clouds 18.970 18.970 18.970 37 1.98 m/h 0 %
17:00:00 scattered clouds 16.970 16.970 16.970 44 1.25 m/h 0 %
20:00:00 clear sky 11.650 11.650 11.650 64 0.78 m/h 0 %
23:00:00 few clouds 10.680 10.680 10.680 68 0.91 m/h 0 %
31-Jan-2020 (Fri)
02:00:00 clear sky 9.690 9.690 9.690 69 0.81 m/h 0 %
05:00:00 clear sky 8.770 8.770 8.770 70 0.14 m/h 0 %
08:00:00 clear sky 10.060 10.060 10.060 62 1.03 m/h 0 %
11:00:00 scattered clouds 17.580 17.580 17.580 32 2.78 m/h 0 %
14:00:00 scattered clouds 19.600 19.600 19.600 27 3.15 m/h 0 %
17:00:00 broken clouds 17.170 17.170 17.170 36 2.61 m/h 0 %
20:00:00 few clouds 12.520 12.520 12.520 43 2.59 m/h 0 %
23:00:00 clear sky 10.870 10.870 10.870 48 1.79 m/h 0 %
01-Feb-2020 (Sat)
02:00:00 clear sky 9.880 9.880 9.880 55 1.85 m/h 0 %
05:00:00 clear sky 9.180 9.180 9.180 57 1.17 m/h 0 %
08:00:00 clear sky 10.610 10.610 10.610 54 0.64 m/h 0 %
11:00:00 clear sky 19.020 19.020 19.020 30 0.71 m/h 0 %
14:00:00 clear sky 21.210 21.210 21.210 21 1.74 m/h 0 %
17:00:00 clear sky 18.630 18.630 18.630 28 1.5 m/h 0 %

Famous Cities (61)